Time;durP1;ratioP1;P1;durP2;ratioP2;P2;SDS_P1;SDS_P2;PMS_P1;PMS_P2;Temp;Humidity;BMP_temperature;BMP_pressure;BME280_temperature;BME280_humidity;BME280_pressure;Samples;Min_cycle;Max_cycle;Signal;HPM_P1;HPM_P2
2023/12/13 00:02:07;;;;;;;5.63;4.93;;;;;;;-141.84;100.00;119224.81;5006988;28;20656;-69
2023/12/13 00:04:36;;;;;;;5.77;4.67;;;;;;;-141.84;100.00;119224.81;5007221;28;20227;-68
2023/12/13 00:07:05;;;;;;;7.57;4.50;;;;;;;-141.84;100.00;119224.81;4998220;28;20230;-69
2023/12/13 00:09:33;;;;;;;7.27;5.40;;;;;;;-141.84;100.00;119224.81;5006447;28;20206;-70
2023/12/13 00:12:02;;;;;;;6.10;5.33;;;;;;;-141.84;100.00;119224.81;5004023;28;20249;-69
2023/12/13 00:14:31;;;;;;;6.57;5.27;;;;;;;-141.84;100.00;119224.81;5007325;28;20266;-69
2023/12/13 00:16:59;;;;;;;6.70;5.60;;;;;;;-141.84;100.00;119224.81;5004253;28;20360;-69
2023/12/13 00:19:29;;;;;;;6.57;5.70;;;;;;;-141.84;100.00;119224.81;4989166;28;20321;-68
2023/12/13 00:21:58;;;;;;;7.83;5.57;;;;;;;-141.84;100.00;119224.81;4993516;28;20231;-69
2023/12/13 00:24:26;;;;;;;7.30;5.90;;;;;;;-141.84;100.00;119224.81;5007405;28;20680;-69
2023/12/13 00:26:55;;;;;;;8.80;6.03;;;;;;;-141.84;100.00;119224.81;4989142;28;20310;-69
2023/12/13 00:29:23;;;;;;;7.03;6.03;;;;;;;-141.84;100.00;119224.81;4996625;28;20316;-69
2023/12/13 00:31:51;;;;;;;6.37;5.63;;;;;;;-141.84;100.00;119224.81;5021660;28;20245;-70
2023/12/13 00:34:20;;;;;;;7.70;5.87;;;;;;;-141.84;100.00;119224.81;5008562;28;20245;-70
2023/12/13 00:36:50;;;;;;;9.27;5.90;;;;;;;-141.84;100.00;119224.81;5008512;28;20211;-69
2023/12/13 00:39:18;;;;;;;8.47;6.07;;;;;;;-141.84;100.00;119224.81;5008473;28;20238;-70
2023/12/13 00:41:47;;;;;;;8.30;5.90;;;;;;;-141.84;100.00;119224.81;5007085;28;20234;-73
2023/12/13 00:44:15;;;;;;;7.50;5.97;;;;;;;-141.84;100.00;119224.81;5007518;28;20265;-69
2023/12/13 00:46:44;;;;;;;7.67;5.73;;;;;;;-141.84;100.00;119224.81;5008849;28;20273;-70
2023/12/13 00:49:12;;;;;;;6.43;5.77;;;;;;;-141.84;100.00;119224.81;5009040;28;20237;-70
2023/12/13 00:51:41;;;;;;;6.63;5.80;;;;;;;-141.84;100.00;119224.81;5008884;28;20194;-70
2023/12/13 00:54:11;;;;;;;8.43;6.17;;;;;;;-141.84;100.00;119224.81;5008840;28;20284;-70
2023/12/13 00:56:39;;;;;;;7.53;6.17;;;;;;;-141.84;100.00;119224.81;5009142;28;20262;-69
2023/12/13 00:59:08;;;;;;;7.90;6.13;;;;;;;-141.84;100.00;119224.81;5012367;28;20258;-71
2023/12/13 01:01:44;;;;;;;7.87;6.23;;;;;;;-141.84;100.00;119224.81;5015091;28;20714;-71
2023/12/13 01:04:13;;;;;;;6.57;5.87;;;;;;;-141.84;100.00;119224.81;5010311;28;20257;-70
2023/12/13 01:06:42;;;;;;;7.67;6.10;;;;;;;-141.84;100.00;119224.81;5010178;28;20225;-69
2023/12/13 01:09:12;;;;;;;6.63;5.83;;;;;;;-141.84;100.00;119224.81;5011011;28;20195;-69
2023/12/13 01:11:41;;;;;;;7.37;6.13;;;;;;;-141.84;100.00;119224.81;5010783;28;20292;-71
2023/12/13 01:14:09;;;;;;;7.27;6.07;;;;;;;-141.84;100.00;119224.81;5010604;28;20289;-70
2023/12/13 01:16:38;;;;;;;7.17;6.00;;;;;;;-141.84;100.00;119224.81;5013278;28;20223;-70
2023/12/13 01:19:07;;;;;;;7.67;6.20;;;;;;;-141.84;100.00;119224.81;5014147;28;20226;-70
2023/12/13 01:21:36;;;;;;;7.20;5.87;;;;;;;-141.84;100.00;119224.81;5014517;28;20237;-70
2023/12/13 01:24:05;;;;;;;6.70;5.83;;;;;;;-141.84;100.00;119224.81;5015170;28;20290;-69
2023/12/13 01:26:34;;;;;;;7.67;5.83;;;;;;;-141.84;100.00;119224.81;5014060;28;20230;-70
2023/12/13 01:29:03;;;;;;;7.40;6.33;;;;;;;-141.84;100.00;119224.81;5015092;28;20237;-69
2023/12/13 01:31:32;;;;;;;7.33;5.80;;;;;;;-141.84;100.00;119224.81;5031170;28;20226;-69
2023/12/13 01:34:00;;;;;;;6.87;6.10;;;;;;;-141.84;100.00;119224.81;5014674;28;20246;-70
2023/12/13 01:36:29;;;;;;;8.50;6.43;;;;;;;-141.84;100.00;119224.81;5014827;28;20294;-70
2023/12/13 01:38:57;;;;;;;6.70;5.37;;;;;;;-141.84;100.00;119224.81;5012888;28;20218;-69
2023/12/13 01:41:25;;;;;;;8.50;7.00;;;;;;;-141.84;100.00;119224.81;5013608;28;20227;-68
2023/12/13 01:43:55;;;;;;;8.93;6.83;;;;;;;-141.84;100.00;119224.81;5013340;28;20693;-68
2023/12/13 01:46:24;;;;;;;8.03;6.60;;;;;;;-141.84;100.00;119224.81;5014616;28;20226;-68
2023/12/13 01:48:53;;;;;;;6.83;6.10;;;;;;;-141.84;100.00;119224.81;5012873;28;20235;-69
2023/12/13 01:51:21;;;;;;;7.47;6.43;;;;;;;-141.84;100.00;119224.81;5013413;28;20586;-68
2023/12/13 01:53:50;;;;;;;7.17;6.07;;;;;;;-141.84;100.00;119224.81;5013025;28;20227;-67
2023/12/13 01:56:19;;;;;;;8.60;7.00;;;;;;;-141.84;100.00;119224.81;5012591;28;20226;-67
2023/12/13 01:58:48;;;;;;;7.87;6.80;;;;;;;-141.84;100.00;119224.81;5012388;28;20280;-68
2023/12/13 02:01:18;;;;;;;8.90;7.30;;;;;;;-141.84;100.00;119224.81;5003992;28;20234;-68
2023/12/13 02:03:47;;;;;;;8.00;6.73;;;;;;;-141.84;100.00;119224.81;4993607;28;20209;-68
2023/12/13 02:06:16;;;;;;;8.03;7.13;;;;;;;-141.84;100.00;119224.81;4993403;28;20230;-67
2023/12/13 02:08:44;;;;;;;10.77;7.60;;;;;;;-141.84;100.00;119224.81;4992636;28;20227;-68
2023/12/13 02:11:13;;;;;;;11.63;8.33;;;;;;;-141.84;100.00;119224.81;5011570;28;20313;-67
2023/12/13 02:13:43;;;;;;;11.47;7.90;;;;;;;-141.84;100.00;119224.81;5012226;28;20656;-68
2023/12/13 02:16:11;;;;;;;9.33;7.57;;;;;;;-141.84;100.00;119224.81;5012064;28;20218;-68
2023/12/13 02:18:41;;;;;;;10.50;8.10;;;;;;;-141.84;100.00;119224.81;5012249;28;20202;-68
2023/12/13 02:21:10;;;;;;;9.97;7.70;;;;;;;-141.84;100.00;119224.81;5012492;28;20203;-68
2023/12/13 02:23:40;;;;;;;11.90;8.60;;;;;;;-141.84;100.00;119224.81;5011999;28;20257;-67
2023/12/13 02:26:09;;;;;;;11.13;8.10;;;;;;;-141.84;100.00;119224.81;5011638;28;20234;-68
2023/12/13 02:28:38;;;;;;;11.70;8.43;;;;;;;-141.84;100.00;119224.81;5010854;28;20314;-68
2023/12/13 02:31:08;;;;;;;12.50;8.50;;;;;;;-141.84;100.00;119224.81;5030465;28;20226;-68
2023/12/13 02:33:40;;;;;;;10.57;8.43;;;;;;;-141.84;100.00;119224.81;5015579;28;20642;-67
2023/12/13 02:36:09;;;;;;;11.67;9.00;;;;;;;-141.84;100.00;119224.81;5012529;28;20207;-68
2023/12/13 02:38:40;;;;;;;12.83;9.30;;;;;;;-141.84;100.00;119224.81;5011630;28;20856;-69
2023/12/13 02:41:09;;;;;;;11.90;9.83;;;;;;;-141.84;100.00;119224.81;5011720;28;20254;-67
2023/12/13 02:43:38;;;;;;;12.20;9.63;;;;;;;-141.84;100.00;119224.81;5011307;28;20641;-68
2023/12/13 02:46:07;;;;;;;11.27;9.10;;;;;;;-141.84;100.00;119224.81;5011489;28;20293;-68
2023/12/13 02:48:35;;;;;;;13.00;9.60;;;;;;;-141.84;100.00;119224.81;5011560;28;20249;-68
2023/12/13 02:51:04;;;;;;;13.47;10.07;;;;;;;-141.84;100.00;119224.81;5012178;28;20272;-69
2023/12/13 02:53:33;;;;;;;14.73;10.17;;;;;;;-141.84;100.00;119224.81;5011507;28;20231;-67
2023/12/13 02:56:03;;;;;;;11.30;9.27;;;;;;;-141.84;100.00;119224.81;5011311;28;20671;-68
2023/12/13 02:58:31;;;;;;;13.40;9.80;;;;;;;-141.84;100.00;119224.81;5011159;28;20741;-68
2023/12/13 03:01:00;;;;;;;12.37;9.63;;;;;;;-141.84;100.00;119224.81;5019333;28;20241;-68
2023/12/13 03:03:28;;;;;;;15.43;10.23;;;;;;;-141.84;100.00;119224.81;4992849;28;20506;-68
2023/12/13 03:05:57;;;;;;;14.57;10.67;;;;;;;-141.84;100.00;119224.81;5011209;28;20233;-68
2023/12/13 03:08:25;;;;;;;15.13;11.13;;;;;;;-141.84;100.00;119224.81;5011137;28;20235;-68
2023/12/13 03:10:54;;;;;;;12.60;10.27;;;;;;;-141.84;100.00;119224.81;5010972;28;20296;-67
2023/12/13 03:13:25;;;;;;;16.50;11.33;;;;;;;-141.84;100.00;119224.81;5010961;28;20261;-68
2023/12/13 03:15:53;;;;;;;15.30;11.70;;;;;;;-141.84;100.00;119224.81;5011120;28;20231;-67
2023/12/13 03:18:22;;;;;;;15.47;11.50;;;;;;;-141.84;100.00;119224.81;5011602;28;20202;-67
2023/12/13 03:20:51;;;;;;;15.00;11.43;;;;;;;-141.84;100.00;119224.81;5010745;28;20223;-67
2023/12/13 03:23:19;;;;;;;16.27;11.90;;;;;;;-141.84;100.00;119224.81;5010897;28;20309;-67
2023/12/13 03:25:48;;;;;;;15.63;12.10;;;;;;;-141.84;100.00;119224.81;5011089;28;20232;-67
2023/12/13 03:28:17;;;;;;;15.63;11.93;;;;;;;-141.84;100.00;119224.81;5010865;28;20237;-68
2023/12/13 03:30:47;;;;;;;16.67;12.23;;;;;;;-141.84;100.00;119224.81;5026093;28;20228;-67
2023/12/13 03:33:15;;;;;;;16.03;12.20;;;;;;;-141.84;100.00;119224.81;5017867;28;20325;-67
2023/12/13 03:35:44;;;;;;;15.47;12.30;;;;;;;-141.84;100.00;119224.81;5010893;28;20228;-68
2023/12/13 03:38:12;;;;;;;17.10;11.87;;;;;;;-141.84;100.00;119224.81;5010645;28;20801;-69
2023/12/13 03:40:41;;;;;;;17.77;12.63;;;;;;;-141.84;100.00;119224.81;5010648;28;20250;-67
2023/12/13 03:43:09;;;;;;;17.43;13.00;;;;;;;-141.84;100.00;119224.81;5010663;28;20310;-68
2023/12/13 03:45:38;;;;;;;17.27;13.27;;;;;;;-141.84;100.00;119224.81;5010667;28;20670;-67
2023/12/13 03:48:08;;;;;;;15.30;11.87;;;;;;;-141.84;100.00;119224.81;5011068;28;20206;-67
2023/12/13 03:50:37;;;;;;;17.83;12.93;;;;;;;-141.84;100.00;119224.81;5009396;28;20610;-67
2023/12/13 03:53:05;;;;;;;16.50;11.73;;;;;;;-141.84;100.00;119224.81;5010341;28;20317;-67
2023/12/13 03:55:34;;;;;;;18.20;13.57;;;;;;;-141.84;100.00;119224.81;5010370;28;20281;-67
2023/12/13 03:58:02;;;;;;;17.53;13.17;;;;;;;-141.84;100.00;119224.81;5010486;28;20222;-69
2023/12/13 04:00:31;;;;;;;18.30;13.37;;;;;;;-141.84;100.00;119224.81;5018736;28;20297;-68
2023/12/13 04:03:00;;;;;;;17.87;13.27;;;;;;;-141.84;100.00;119224.81;4995345;28;20227;-68
2023/12/13 04:05:30;;;;;;;18.33;12.90;;;;;;;-141.84;100.00;119224.81;4990646;28;20227;-69
2023/12/13 04:07:58;;;;;;;17.80;12.70;;;;;;;-141.84;100.00;119224.81;4995868;28;20816;-69
2023/12/13 04:10:27;;;;;;;16.30;12.83;;;;;;;-141.84;100.00;119224.81;5010071;28;20237;-67
2023/12/13 04:12:56;;;;;;;17.43;12.33;;;;;;;-141.84;100.00;119224.81;5010414;28;20226;-68
2023/12/13 04:15:24;;;;;;;18.73;14.50;;;;;;;-141.84;100.00;119224.81;5009132;28;21008;-68
2023/12/13 04:17:52;;;;;;;18.20;13.27;;;;;;;-141.84;100.00;119224.81;5009741;28;20305;-68
2023/12/13 04:20:21;;;;;;;19.37;13.10;;;;;;;-141.84;100.00;119224.81;5010104;28;20585;-67
2023/12/13 04:22:51;;;;;;;19.47;14.17;;;;;;;-141.84;100.00;119224.81;5010092;28;20609;-67
2023/12/13 04:25:19;;;;;;;18.77;13.70;;;;;;;-141.84;100.00;119224.81;5010386;28;20238;-68
2023/12/13 04:27:48;;;;;;;18.13;13.53;;;;;;;-141.84;100.00;119224.81;5010057;28;20659;-68
2023/12/13 04:30:16;;;;;;;17.67;13.37;;;;;;;-141.84;100.00;119224.81;5009384;28;20210;-68
2023/12/13 04:32:45;;;;;;;19.93;14.37;;;;;;;-141.84;100.00;119224.81;5009875;28;20234;-68
2023/12/13 04:35:14;;;;;;;19.50;13.87;;;;;;;-141.84;100.00;119224.81;5009821;28;20226;-68
2023/12/13 04:37:42;;;;;;;18.27;13.60;;;;;;;-141.84;100.00;119224.81;5010332;28;20314;-70
2023/12/13 04:40:13;;;;;;;16.30;12.20;;;;;;;-141.84;100.00;119224.81;5009843;28;20733;-69
2023/12/13 04:42:41;;;;;;;19.13;13.73;;;;;;;-141.84;100.00;119224.81;5010054;28;20210;-70
2023/12/13 04:45:10;;;;;;;21.00;15.40;;;;;;;-141.84;100.00;119224.81;5010358;28;20642;-70
2023/12/13 04:47:40;;;;;;;19.60;13.63;;;;;;;-141.84;100.00;119224.81;5010085;28;20246;-69
2023/12/13 04:50:10;;;;;;;19.00;13.70;;;;;;;-141.84;100.00;119224.81;5009993;28;20718;-68
2023/12/13 04:52:38;;;;;;;18.77;13.87;;;;;;;-141.84;100.00;119224.81;5013658;28;20230;-68
2023/12/13 04:55:07;;;;;;;18.47;13.53;;;;;;;-141.84;100.00;119224.81;5013638;28;20811;-67
2023/12/13 04:57:37;;;;;;;19.10;13.83;;;;;;;-141.84;100.00;119224.81;5013681;28;20202;-68
2023/12/13 05:00:07;;;;;;;18.53;13.30;;;;;;;-141.84;100.00;119224.81;5013845;28;20206;-69
2023/12/13 05:02:36;;;;;;;20.80;14.60;;;;;;;-141.84;100.00;119224.81;5013375;28;20222;-69
2023/12/13 05:05:05;;;;;;;21.03;14.23;;;;;;;-141.84;100.00;119224.81;5013314;28;20265;-68
2023/12/13 05:07:34;;;;;;;18.50;13.83;;;;;;;-141.84;100.00;119224.81;5013672;28;20226;-68
2023/12/13 05:10:04;;;;;;;21.90;14.80;;;;;;;-141.84;100.00;119224.81;5013152;28;20230;-67
2023/12/13 05:12:32;;;;;;;19.07;13.50;;;;;;;-141.84;100.00;119224.81;5013744;28;20237;-67
2023/12/13 05:15:03;;;;;;;18.37;13.77;;;;;;;-141.84;100.00;119224.81;5013342;28;20293;-68
2023/12/13 05:17:32;;;;;;;21.77;14.13;;;;;;;-141.84;100.00;119224.81;5008659;28;20219;-69
2023/12/13 05:20:03;;;;;;;17.33;14.03;;;;;;;-141.84;100.00;119224.81;4999096;28;20231;-71
2023/12/13 05:22:32;;;;;;;17.87;13.00;;;;;;;-141.84;100.00;119224.81;4994913;28;20673;-68
2023/12/13 05:25:02;;;;;;;17.83;12.43;;;;;;;-141.84;100.00;119224.81;5012995;28;20893;-67
2023/12/13 05:27:30;;;;;;;17.43;13.07;;;;;;;-141.84;100.00;119224.81;5013817;28;20195;-67
2023/12/13 05:30:00;;;;;;;17.40;12.37;;;;;;;-141.84;100.00;119224.81;5013095;28;20230;-67
2023/12/13 05:32:29;;;;;;;19.03;13.87;;;;;;;-141.84;100.00;119224.81;5012684;28;20247;-68
2023/12/13 05:34:58;;;;;;;19.67;14.10;;;;;;;-141.84;100.00;119224.81;5012863;28;20214;-68
2023/12/13 05:37:26;;;;;;;15.83;12.60;;;;;;;-141.84;100.00;119224.81;5012971;28;20557;-67
2023/12/13 05:39:55;;;;;;;16.43;12.47;;;;;;;-141.84;100.00;119224.81;5012643;28;20706;-68
2023/12/13 05:42:23;;;;;;;15.60;12.50;;;;;;;-141.84;100.00;119224.81;5013424;28;20207;-70
2023/12/13 05:44:52;;;;;;;15.57;11.67;;;;;;;-141.84;100.00;119224.81;5012326;28;20707;-68
2023/12/13 05:47:21;;;;;;;16.03;11.77;;;;;;;-141.84;100.00;119224.81;5013651;28;20223;-68
2023/12/13 05:49:50;;;;;;;14.77;11.13;;;;;;;-141.84;100.00;119224.81;5012681;28;20309;-68
2023/12/13 05:52:19;;;;;;;12.03;10.10;;;;;;;-141.84;100.00;119224.81;5012659;28;20242;-68
2023/12/13 05:54:47;;;;;;;15.00;9.37;;;;;;;-141.84;100.00;119224.81;5012548;28;20210;-68
2023/12/13 05:57:16;;;;;;;12.93;9.73;;;;;;;-141.84;100.00;119224.81;5013126;28;20285;-68
2023/12/13 05:59:44;;;;;;;11.73;9.20;;;;;;;-141.84;100.00;119224.81;5012194;28;20232;-68
2023/12/13 06:02:13;;;;;;;12.27;9.47;;;;;;;-141.84;100.00;119224.81;5010820;28;20241;-68
2023/12/13 06:04:43;;;;;;;11.83;9.40;;;;;;;-141.84;100.00;119224.81;5012315;28;20800;-68
2023/12/13 06:07:12;;;;;;;13.00;9.03;;;;;;;-141.84;100.00;119224.81;5012072;28;20652;-67
2023/12/13 06:09:42;;;;;;;12.87;8.10;;;;;;;-141.84;100.00;119224.81;5010314;28;20838;-67
2023/12/13 06:12:11;;;;;;;15.33;8.80;;;;;;;-141.84;100.00;119224.81;5012594;28;20289;-69
2023/12/13 06:14:40;;;;;;;10.47;8.20;;;;;;;-141.84;100.00;119224.81;5011670;28;20250;-68
2023/12/13 06:17:08;;;;;;;11.83;8.80;;;;;;;-141.84;100.00;119224.81;5011886;28;20289;-68
2023/12/13 06:19:37;;;;;;;11.03;7.60;;;;;;;-141.84;100.00;119224.81;5012168;28;20233;-68
2023/12/13 06:22:09;;;;;;;11.20;8.17;;;;;;;-141.84;100.00;119224.81;5012165;28;20246;-67
2023/12/13 06:24:37;;;;;;;10.90;8.10;;;;;;;-141.84;100.00;119224.81;5012292;28;20283;-68
2023/12/13 06:27:06;;;;;;;9.90;7.63;;;;;;;-141.84;100.00;119224.81;5006938;28;20195;-68
2023/12/13 06:29:34;;;;;;;10.23;7.97;;;;;;;-141.84;100.00;119224.81;4997516;28;20248;-67
2023/12/13 06:32:03;;;;;;;9.93;7.50;;;;;;;-141.84;100.00;119224.81;5011642;28;20254;-68
2023/12/13 06:34:31;;;;;;;13.03;7.73;;;;;;;-141.84;100.00;119224.81;5012005;28;20277;-68
2023/12/13 06:37:00;;;;;;;10.10;7.67;;;;;;;-141.84;100.00;119224.81;5011356;28;20230;-68
2023/12/13 06:39:30;;;;;;;9.13;6.30;;;;;;;-141.84;100.00;119224.81;5012716;28;20234;-67
2023/12/13 06:41:58;;;;;;;7.93;6.50;;;;;;;-141.84;100.00;119224.81;5012214;28;20675;-68
2023/12/13 06:44:26;;;;;;;8.53;6.60;;;;;;;-141.84;100.00;119224.81;5011574;28;20227;-68
2023/12/13 06:46:55;;;;;;;8.63;6.57;;;;;;;-141.84;100.00;119224.81;5011834;28;20245;-67
2023/12/13 06:49:28;;;;;;;8.57;6.33;;;;;;;-141.84;100.00;119224.81;5011649;28;20746;-67
2023/12/13 06:51:56;;;;;;;7.53;5.40;;;;;;;-141.84;100.00;119224.81;5011595;28;20637;-68
2023/12/13 06:54:25;;;;;;;7.77;5.00;;;;;;;-141.84;100.00;119224.81;5010723;28;20293;-68
2023/12/13 06:56:55;;;;;;;7.93;5.90;;;;;;;-141.84;100.00;119224.81;5011287;28;20318;-68
2023/12/13 06:59:23;;;;;;;8.97;5.87;;;;;;;-141.84;100.00;119224.81;5011043;28;20226;-66
2023/12/13 07:01:51;;;;;;;7.00;5.10;;;;;;;-141.84;100.00;119224.81;5007985;28;20316;-67
2023/12/13 07:04:20;;;;;;;5.80;5.20;;;;;;;-141.84;100.00;119224.81;4991840;28;20302;-68
2023/12/13 07:06:49;;;;;;;6.97;5.33;;;;;;;-141.84;100.00;119224.81;5006799;28;20693;-68
2023/12/13 07:09:18;;;;;;;6.63;5.30;;;;;;;-141.84;100.00;119224.81;5011560;28;20198;-69
2023/12/13 07:11:47;;;;;;;8.40;5.47;;;;;;;-141.84;100.00;119224.81;5011022;28;20629;-68
2023/12/13 07:14:17;;;;;;;7.00;5.20;;;;;;;-141.84;100.00;119224.81;5010727;28;20280;-69
2023/12/13 07:16:46;;;;;;;5.80;5.20;;;;;;;-141.84;100.00;119224.81;5003265;28;20312;-69
2023/12/13 07:19:15;;;;;;;6.57;5.20;;;;;;;-141.84;100.00;119224.81;5009789;28;20219;-67
2023/12/13 07:21:43;;;;;;;7.93;5.80;;;;;;;-141.84;100.00;119224.81;5000604;28;20205;-67
2023/12/13 07:24:12;;;;;;;6.87;5.17;;;;;;;-141.84;100.00;119224.81;4994273;28;20294;-69
2023/12/13 07:26:40;;;;;;;7.30;5.53;;;;;;;-141.84;100.00;119224.81;4995398;28;20227;-67
2023/12/13 07:29:09;;;;;;;8.23;5.50;;;;;;;-141.84;100.00;119224.81;5010851;28;20231;-67
2023/12/13 07:31:40;;;;;;;7.27;5.67;;;;;;;-141.84;100.00;119224.81;5010685;28;20273;-67
2023/12/13 07:34:10;;;;;;;5.97;5.30;;;;;;;-141.84;100.00;119224.81;4991045;28;20607;-68
2023/12/13 07:36:42;;;;;;;6.57;5.33;;;;;;;-141.84;100.00;119224.81;4991239;28;20207;-66
2023/12/13 07:39:11;;;;;;;6.97;5.47;;;;;;;-141.84;100.00;119224.81;4998647;28;20195;-67
2023/12/13 07:41:39;;;;;;;8.03;6.40;;;;;;;-141.84;100.00;119224.81;5010478;28;20600;-67
2023/12/13 07:44:08;;;;;;;6.20;5.00;;;;;;;-141.84;100.00;119224.81;5010401;28;20570;-66
2023/12/13 07:46:38;;;;;;;6.23;5.13;;;;;;;-141.84;100.00;119224.81;5010782;28;20249;-67
2023/12/13 07:49:08;;;;;;;5.17;4.57;;;;;;;-141.84;100.00;119224.81;5010845;28;20465;-66
2023/12/13 07:51:37;;;;;;;5.53;4.80;;;;;;;-141.84;100.00;119224.81;5010768;28;20281;-67
2023/12/13 07:54:05;;;;;;;7.90;5.30;;;;;;;-141.84;100.00;119224.81;5011161;28;20213;-68
2023/12/13 07:56:35;;;;;;;7.53;4.90;;;;;;;-141.84;100.00;119224.81;5010464;28;20238;-67
2023/12/13 07:59:03;;;;;;;6.23;4.93;;;;;;;-141.84;100.00;119224.81;5010128;28;20770;-68
2023/12/13 08:01:32;;;;;;;6.80;4.80;;;;;;;-141.84;100.00;119224.81;5009857;28;20626;-67
2023/12/13 08:04:01;;;;;;;6.80;4.70;;;;;;;-141.84;100.00;119224.81;5010656;28;20321;-67
2023/12/13 08:06:30;;;;;;;5.83;4.83;;;;;;;-141.84;100.00;119224.81;5009139;28;20213;-62
2023/12/13 08:08:59;;;;;;;6.13;5.03;;;;;;;-141.84;100.00;119224.81;5008355;28;20625;-66
2023/12/13 08:11:27;;;;;;;6.87;5.20;;;;;;;-141.84;100.00;119224.81;4991411;28;20794;-66
2023/12/13 08:13:56;;;;;;;7.33;5.23;;;;;;;-141.84;100.00;119224.81;4995888;28;20309;-65
2023/12/13 08:16:25;;;;;;;6.87;5.03;;;;;;;-141.84;100.00;119224.81;5008633;28;20233;-65
2023/12/13 08:18:54;;;;;;;6.73;4.77;;;;;;;-141.84;100.00;119224.81;5019128;28;20221;-65
2023/12/13 08:21:24;;;;;;;5.87;4.63;;;;;;;-141.84;100.00;119224.81;5026483;28;20210;-65
2023/12/13 08:23:54;;;;;;;6.07;5.20;;;;;;;-141.84;100.00;119224.81;5014277;28;20284;-67
2023/12/13 08:26:25;;;;;;;6.03;4.60;;;;;;;-141.84;100.00;119224.81;5013258;28;20610;-70
2023/12/13 08:28:53;;;;;;;5.03;4.27;;;;;;;-141.84;100.00;119224.81;5014734;28;20309;-72
2023/12/13 08:31:34;;;;;;;4.97;4.00;;;;;;;-141.84;100.00;119224.81;4995449;28;20239;-71
2023/12/13 08:34:03;;;;;;;5.70;4.30;;;;;;;-141.84;100.00;119224.81;5013785;28;20230;-72
2023/12/13 08:36:32;;;;;;;6.47;4.30;;;;;;;-141.84;100.00;119224.81;5015196;28;20298;-73
2023/12/13 08:39:02;;;;;;;5.47;4.57;;;;;;;-141.84;100.00;119224.81;5005272;28;20281;-72
2023/12/13 08:41:32;;;;;;;7.93;5.03;;;;;;;-141.84;100.00;119222.75;5014455;28;20225;-71
2023/12/13 08:44:00;;;;;;;6.47;4.77;;;;;;;-141.84;100.00;119222.75;5014833;28;20788;-71
2023/12/13 08:46:29;;;;;;;5.77;3.93;;;;;;;-141.84;100.00;119224.81;5013009;28;20230;-73
2023/12/13 08:48:57;;;;;;;4.97;4.40;;;;;;;-141.84;100.00;119224.81;5013700;28;20226;-72
2023/12/13 08:51:26;;;;;;;5.00;3.57;;;;;;;-141.84;100.00;119224.81;5015910;28;20209;-73
2023/12/13 08:53:55;;;;;;;5.73;4.27;;;;;;;-141.84;100.00;118422.72;5014602;28;20230;-72
2023/12/13 08:56:25;;;;;;;5.10;4.13;;;;;;;-141.84;100.00;118422.72;5014468;28;20229;-73
2023/12/13 08:58:53;;;;;;;7.43;4.70;;;;;;;-141.84;100.00;119222.75;5013205;28;20266;-76
2023/12/13 09:01:22;;;;;;;5.80;4.20;;;;;;;-141.84;100.00;119224.81;5007421;28;20357;-68
2023/12/13 09:03:55;;;;;;;4.57;4.17;;;;;;;-141.84;100.00;119224.81;5013585;28;20249;-67
2023/12/13 09:06:24;;;;;;;5.10;4.17;;;;;;;-141.84;100.00;119224.81;5014283;28;20198;-62
2023/12/13 09:08:53;;;;;;;6.40;4.70;;;;;;;-141.84;100.00;119224.81;5012962;28;20269;-68
2023/12/13 09:11:23;;;;;;;6.30;4.77;;;;;;;-141.84;100.00;119224.81;5014069;28;20230;-72
2023/12/13 09:13:52;;;;;;;6.70;4.37;;;;;;;-141.84;100.00;119222.75;5013868;28;20372;-74
2023/12/13 09:16:20;;;;;;;4.27;3.80;;;;;;;-141.84;100.00;118422.72;5013618;28;20230;-66
2023/12/13 09:18:49;;;;;;;5.33;4.10;;;;;;;-141.84;100.00;118156.06;5006570;28;20519;-67
2023/12/13 09:21:18;;;;;;;4.57;4.17;;;;;;;-141.84;100.00;113625.81;5013776;28;20681;-66
2023/12/13 09:23:46;;;;;;;4.37;3.33;;;;;;;-141.84;100.00;108302.56;5013384;28;20239;-68
2023/12/13 09:26:15;;;;;;;4.57;3.73;;;;;;;-141.84;100.00;102455.00;4993771;28;20235;-66
2023/12/13 09:28:45;;;;;;;4.50;3.60;;;;;;;-141.84;100.00;98738.19;4990871;28;20274;-66
2023/12/13 09:31:14;;;;;;;5.17;4.10;;;;;;;-141.84;100.00;101127.16;5009601;28;20226;-65
2023/12/13 09:33:42;;;;;;;5.50;3.77;;;;;;;-141.84;100.00;104048.94;5010166;28;20732;-62
2023/12/13 09:36:12;;;;;;;6.20;4.20;;;;;;;-141.84;100.00;105111.94;5014764;28;20199;-62
2023/12/13 09:38:41;;;;;;;4.00;3.57;;;;;;;-141.84;100.00;104314.66;5009519;28;20239;-63
2023/12/13 09:41:10;;;;;;;5.40;4.53;;;;;;;-141.84;100.00;108302.56;5010058;28;20322;-60
2023/12/13 09:43:42;;;;;;;5.67;3.80;;;;;;;-141.84;100.00;111495.69;5010262;28;20674;-61
2023/12/13 09:46:17;;;;;;;4.27;3.87;;;;;;;-141.84;100.00;112294.34;5009942;28;20233;-66
2023/12/13 09:48:46;;;;;;;5.63;3.60;;;;;;;-141.84;100.00;110963.31;5009989;28;20182;-69
2023/12/13 09:51:16;;;;;;;4.97;3.60;;;;;;;-141.84;100.00;110431.03;5011285;28;20207;-64
2023/12/13 09:53:48;;;;;;;4.63;3.90;;;;;;;-141.84;100.00;111761.88;5010272;28;20313;-64
2023/12/13 09:56:16;;;;;;;5.53;3.47;;;;;;;-141.84;100.00;112826.88;5010163;28;20656;-63
2023/12/13 09:58:45;;;;;;;5.10;3.47;;;;;;;-141.84;100.00;115224.16;5009156;28;20255;-63
2023/12/13 10:01:16;;;;;;;6.73;3.83;;;;;;;-141.84;100.00;116823.13;5008427;28;20227;-67
2023/12/13 10:03:45;;;;;;;4.93;3.87;;;;;;;-141.84;100.00;115490.59;5008621;28;20718;-64
2023/12/13 10:06:13;;;;;;;4.97;4.07;;;;;;;-141.84;100.00;114957.72;5008866;28;20210;-64
2023/12/13 10:08:42;;;;;;;4.20;3.80;;;;;;;-141.84;100.00;113625.81;5007493;28;20310;-66
2023/12/13 10:11:11;;;;;;;6.60;4.17;;;;;;;-141.84;100.00;111761.88;5007965;28;20674;-66
2023/12/13 10:13:40;;;;;;;4.57;4.13;;;;;;;-141.84;100.00;109898.81;5008025;28;20823;-69
2023/12/13 10:16:10;;;;;;;4.33;3.83;;;;;;;-141.84;100.00;107504.66;5007910;28;20253;-68
2023/12/13 10:18:40;;;;;;;4.30;3.90;;;;;;;-141.84;100.00;105111.94;5008293;28;20223;-64
2023/12/13 10:21:10;;;;;;;4.50;3.50;;;;;;;-141.84;100.00;104314.66;5009896;28;20253;-67
2023/12/13 10:23:41;;;;;;;5.40;4.27;;;;;;;-141.84;100.00;103783.25;5008185;28;20269;-68
2023/12/13 10:26:11;;;;;;;5.80;3.57;;;;;;;-141.84;100.00;100330.69;5007656;28;20609;-66
2023/12/13 10:28:39;;;;;;;3.77;3.40;;;;;;;-141.84;100.00;98738.19;5011307;28;20332;-71
2023/12/13 10:31:08;;;;;;;4.93;4.30;;;;;;;-141.84;100.00;92904.41;5010894;28;20234;-72
2023/12/13 10:33:37;;;;;;;6.40;3.77;;;;;;;-141.84;97.66;69126.50;5011139;28;20235;-69
2023/12/13 10:36:10;;;;;;;5.33;3.60;;;;;;;-141.84;95.41;56239.94;5012294;28;20203;-74
2023/12/13 10:38:40;;;;;;;4.43;3.73;;;;;;;-141.84;93.35;46798.88;5011265;28;20713;-75
2023/12/13 10:41:11;;;;;;;7.00;3.40;;;;;;;-141.84;92.90;42871.75;5011087;28;20246;-68
2023/12/13 10:43:42;;;;;;;5.93;3.80;;;;;;;-141.84;90.90;31931.25;5011114;28;20234;-69
2023/12/13 10:46:17;;;;;;;6.20;3.83;;;;;;;-141.84;90.97;31183.16;5010526;28;20234;-66
2023/12/13 10:48:46;;;;;;;5.37;3.87;;;;;;;-141.84;88.52;24364.91;5009023;28;20214;-66
2023/12/13 10:51:18;;;;;;;4.63;3.60;;;;;;;-141.84;90.76;29116.88;5011467;28;20209;-65
2023/12/13 10:53:48;;;;;;;4.10;3.53;;;;;;;-141.84;93.24;42348.44;5011755;28;20230;-73
2023/12/13 10:56:17;;;;;;;5.03;3.63;;;;;;;-141.84;93.26;42871.75;5010492;28;20756;-69
2023/12/13 10:58:46;;;;;;;5.60;3.90;;;;;;;-141.84;94.57;49681.28;5010052;28;20318;-69
2023/12/13 11:01:17;;;;;;;5.60;3.20;;;;;;;-141.84;94.77;51516.59;5010585;28;20226;-70
2023/12/13 11:03:48;;;;;;;4.37;3.57;;;;;;;-141.84;95.05;52303.44;5010906;28;20191;-69
2023/12/13 11:06:20;;;;;;;3.43;2.73;;;;;;;-141.84;93.87;46536.97;5009581;28;20195;-68